Fifty Lakes, Minnesota
Current Conditions -  °F | °C
As of 3:34 AM on Monday 24 Nov 2014 (Local Time) from KPWC Reporting Station
Overcast Overcast  
Wind Chill:   Ceiling: 1000
Heat Index: 19°   Visibility: 10mi
Dew Point: 18°   Wind: 13mph
Humidity: 93%   Direction: 330°NNW
Pressure: 29.43"   Gusts: 17mph
Location:  46.74°N, 94.09°W
Report Text: KPWC 240934Z AUTO 33011G15KT 10SM OVC010 M07/M08 A2943 RMK AO2
Loading
Personal Weather Stations






























Interactive Weather Map New forecast layout! Learn more

10-Day Weather Forecast

Advertisements
Track Severe Weather on mobile